Isleta, NM (87022)

8:36 AM MST on February 13, 2016 (GMT -0700)
Bosque Farms | | Change Station
CLOSE
Current Station
Personal Weather Station
Location: Bosque Farms, NM
Elevation: 4856 ft
Nearby Weather Stations

Elev 4856 ft 34.84 °N, 106.70 °W | Updated 26 seconds ago

Clear
Clear
33.8 °F
Feels Like 34 °F
N
2.2
Wind Variable Wind from ESE

Today
High -- | Low -- °F
--% Chance of Precip.
Yesterday
High -- | Low -- °F
Precip. -- in
Pressure 30.27 in
Visibility 10.0 miles
Clouds Few 17000 ft
Windchill 34 °F
Dew Point 21 °F
Humidity 60%
Rainfall 0.00 in
Snow Depth Not available.
6:55 AM 5:47 PM
Waxing Crescent, 31% visible
METAR KABQ 131452Z 00000KT 10SM FEW170 01/M07 A3032 RMK AO2 SLP251 T00111067 53005
Pressure 30.27 in
Visibility 10.0 miles
Clouds Few 17000 ft
Windchill 34 °F
Dew Point 21 °F
Humidity 60%
Rainfall 0.00 in
Snow Depth Not available.
6:55 AM 5:47 PM
Waxing Crescent, 31% visible
METAR KABQ 131452Z 00000KT 10SM FEW170 01/M07 A3032 RMK AO2 SLP251 T00111067 53005

10-Day Weather Forecast

Almanac

Astronomy

Feb. 13, 2016 Rise Set
Actual Time
Civil Twilight
Nautical Twilight
Astronomical Twilight
Moon
Length of Visible Light
Length of Day
Tomorrow will be .
, % of the Moon is Illuminated

Today's Extremes

State Highs State Lows

Community

WunderPhotos

Upload Photos

1,892,585 photos uploaded!

WunderBlog® & News

Nearby

Air Quality

  Air Quality AQ Index Pollutant
Not available.

Snow Depth

Station Depth Elevation

Earthquake Activity

City Distance Mag. Time & Date
Minimum magnitude displayed is 2.5.

Coastal Water Temperatures

Place Temperature

Stations

Nearby Weather Stations

Station Location Temp. Windchill Dew Point Humidity Wind Precip. Elev Updated Type
                   

Watches & Warnings

There are currently no watches in effect.